American Pillar — WDB9867 — position and weather

sailwx.info

Track history (hours):
 
Tides and Currents Weather Stations Pressure Air Temp Water Temp Dewpoint Dewpoint Depression Visibility Wind Speed Wind Dir Waves Ship Positions

American Pillar

Owner: American River Transportation Company, St Louis, MO. More information available from US FCC via Universal Licensing System and Coast Guard Vessel Documentation Center.

Last reported at 2018-Jul-18 06:00 UTC. Time now 2018-Jul-19 01:41 UTC.
Position N 32°57' W 091°06'.

Length 55 m; draft 3.5 m.

Type: Towing. MMSI: 366984210.

Date/timePositionNaut miles runAvg speedWind from/ knotsBaromVisibWave heightAir tempDewpointWater temp
2018-Jul-18 06:00N 32°57' W 091°06'3 5.0
2018-Jul-18 05:30N 32°55' W 091°04'7 5.9
2018-Jul-18 04:14N 32°49' W 091°09'1 6.0
2018-Jul-18 04:00N 32°47' W 091°09'3 6.1
2018-Jul-18 03:29N 32°44' W 091°09'3 5.6
2018-Jul-18 02:54N 32°44' W 091°05'0 1.1
2018-Jul-18 02:30N 32°44' W 091°04'4 4.3
2018-Jul-18 01:32N 32°40' W 091°06'0 6.6
2018-Jul-18 01:28N 32°40' W 091°07'3 5.3
2018-Jul-18 00:57N 32°38' W 091°09'3 6.4
2018-Jul-18 00:30N 32°36' W 091°08'3 6.1
2018-Jul-18 00:00N 32°33' W 091°06'3 5.7
2018-Jul-17 23:29N 32°30' W 091°07'3 6.1
2018-Jul-17 23:00N 32°28' W 091°06'3 6.3
2018-Jul-17 22:30N 32°26' W 091°02'3 5.9
2018-Jul-17 22:00N 32°24' W 090°59'2 4.6
2018-Jul-17 21:30N 32°22' W 091°00'2 4.7
2018-Jul-17 21:00N 32°21' W 090°58'3 6.2
2018-Jul-17 20:30N 32°20' W 090°54'2 4.2
2018-Jul-17 20:00N 32°18' W 090°55'2 3.1
2018-Jul-17 19:30N 32°17' W 090°57'3 6.2
2018-Jul-17 19:00N 32°15' W 090°59'3 6.3
2018-Jul-17 18:30N 32°12' W 090°60'3 6.4
2018-Jul-17 18:00N 32°08' W 091°00'3 5.3
2018-Jul-17 17:30N 32°08' W 091°03'2 4.5
2018-Jul-17 17:00N 32°08' W 091°06'5 5.6
2018-Jul-17 16:09N 32°03' W 091°03'1 5.8
2018-Jul-17 15:58N 32°02' W 091°04'3 6.7
2018-Jul-17 15:30N 31°60' W 091°06'4 6.3
2018-Jul-17 14:51N 31°59' W 091°10'  
2018-Jul-14 04:04N 31°38' W 091°24'1 8.9
2018-Jul-14 03:58N 31°38' W 091°24'5 8.6
2018-Jul-14 03:21N 31°44' W 091°23'3 8.9
2018-Jul-14 02:59N 31°47' W 091°22'4 8.8
2018-Jul-14 02:29N 31°51' W 091°20'4 8.3
2018-Jul-14 02:00N 31°51' W 091°16'5 8.5
2018-Jul-14 01:27N 31°55' W 091°12'4 9.0
2018-Jul-14 01:00N 31°59' W 091°11'4 8.3
2018-Jul-14 00:30N 31°59' W 091°06'4 8.7
2018-Jul-14 00:00N 32°03' W 091°03'4 8.8
2018-Jul-13 23:30N 32°07' W 091°06'3 6.4
2018-Jul-13 22:59N 32°07' W 091°03'4 7.4
2018-Jul-13 22:30N 32°10' W 091°00'5 9.2
2018-Jul-13 22:00N 32°15' W 090°59'4 8.8
2018-Jul-13 21:30N 32°18' W 090°55'3 5.9
2018-Jul-13 21:00N 32°21' W 090°56'4 8.1
2018-Jul-13 20:30N 32°22' W 091°00'4 7.5
2018-Jul-13 20:00N 32°26' W 091°01'4 8.9
2018-Jul-13 19:30N 32°28' W 091°06'4 7.9
2018-Jul-13 18:59N 32°32' W 091°06'4 8.2
2018-Jul-13 18:30N 32°35' W 091°08'4 8.3
2018-Jul-13 18:00N 32°39' W 091°09'5 3.8
2018-Jul-13 16:40N 32°44' W 091°09'18 6.4
2018-Jul-13 13:55N 33°02' W 091°09'4 9.0
2018-Jul-13 13:30N 33°06' W 091°10'  
Track history (hours):
 
Tides and Currents Weather Stations Pressure Air Temp Water Temp Dewpoint Dewpoint Depression Visibility Wind Speed Wind Dir Waves Ship Positions

American Pillar

Owner: American River Transportation Company, St Louis, MO. More information available from US FCC via Universal Licensing System and Coast Guard Vessel Documentation Center.

Last reported at 2018-Jul-18 06:00 UTC. Time now 2018-Jul-19 01:41 UTC.
Position N 32°57' W 091°06'.

Length 55 m; draft 3.5 m.

Type: Towing. MMSI: 366984210.

Date/timePositionNaut miles runAvg speedWind from/ knotsBaromVisibWave heightAir tempDewpointWater temp
2018-Jul-18 06:00N 32°57' W 091°06'3 5.0
2018-Jul-18 05:30N 32°55' W 091°04'7 5.9
2018-Jul-18 04:14N 32°49' W 091°09'1 6.0
2018-Jul-18 04:00N 32°47' W 091°09'3 6.1
2018-Jul-18 03:29N 32°44' W 091°09'3 5.6
2018-Jul-18 02:54N 32°44' W 091°05'0 1.1
2018-Jul-18 02:30N 32°44' W 091°04'4 4.3
2018-Jul-18 01:32N 32°40' W 091°06'0 6.6
2018-Jul-18 01:28N 32°40' W 091°07'3 5.3
2018-Jul-18 00:57N 32°38' W 091°09'3 6.4
2018-Jul-18 00:30N 32°36' W 091°08'3 6.1
2018-Jul-18 00:00N 32°33' W 091°06'3 5.7
2018-Jul-17 23:29N 32°30' W 091°07'3 6.1
2018-Jul-17 23:00N 32°28' W 091°06'3 6.3
2018-Jul-17 22:30N 32°26' W 091°02'3 5.9
2018-Jul-17 22:00N 32°24' W 090°59'2 4.6
2018-Jul-17 21:30N 32°22' W 091°00'2 4.7
2018-Jul-17 21:00N 32°21' W 090°58'3 6.2
2018-Jul-17 20:30N 32°20' W 090°54'2 4.2
2018-Jul-17 20:00N 32°18' W 090°55'2 3.1
2018-Jul-17 19:30N 32°17' W 090°57'3 6.2
2018-Jul-17 19:00N 32°15' W 090°59'3 6.3
2018-Jul-17 18:30N 32°12' W 090°60'3 6.4
2018-Jul-17 18:00N 32°08' W 091°00'3 5.3
2018-Jul-17 17:30N 32°08' W 091°03'2 4.5
2018-Jul-17 17:00N 32°08' W 091°06'5 5.6
2018-Jul-17 16:09N 32°03' W 091°03'1 5.8
2018-Jul-17 15:58N 32°02' W 091°04'3 6.7
2018-Jul-17 15:30N 31°60' W 091°06'4 6.3
2018-Jul-17 14:51N 31°59' W 091°10'  
2018-Jul-14 04:04N 31°38' W 091°24'1 8.9
2018-Jul-14 03:58N 31°38' W 091°24'5 8.6
2018-Jul-14 03:21N 31°44' W 091°23'3 8.9
2018-Jul-14 02:59N 31°47' W 091°22'4 8.8
2018-Jul-14 02:29N 31°51' W 091°20'4 8.3
2018-Jul-14 02:00N 31°51' W 091°16'5 8.5
2018-Jul-14 01:27N 31°55' W 091°12'4 9.0
2018-Jul-14 01:00N 31°59' W 091°11'4 8.3
2018-Jul-14 00:30N 31°59' W 091°06'4 8.7
2018-Jul-14 00:00N 32°03' W 091°03'4 8.8
2018-Jul-13 23:30N 32°07' W 091°06'3 6.4
2018-Jul-13 22:59N 32°07' W 091°03'4 7.4
2018-Jul-13 22:30N 32°10' W 091°00'5 9.2
2018-Jul-13 22:00N 32°15' W 090°59'4 8.8
2018-Jul-13 21:30N 32°18' W 090°55'3 5.9
2018-Jul-13 21:00N 32°21' W 090°56'4 8.1
2018-Jul-13 20:30N 32°22' W 091°00'4 7.5
2018-Jul-13 20:00N 32°26' W 091°01'4 8.9
2018-Jul-13 19:30N 32°28' W 091°06'4 7.9
2018-Jul-13 18:59N 32°32' W 091°06'4 8.2
2018-Jul-13 18:30N 32°35' W 091°08'4 8.3
2018-Jul-13 18:00N 32°39' W 091°09'5 3.8
2018-Jul-13 16:40N 32°44' W 091°09'18 6.4
2018-Jul-13 13:55N 33°02' W 091°09'4 9.0
2018-Jul-13 13:30N 33°06' W 091°10'  

Dump ship's entire track history